createdAt,value
2022-10-30T00:00:36.077Z,4.60
2022-10-30T00:01:36.123Z,4.10
2022-10-30T00:02:36.113Z,4.80
2022-10-30T00:03:36.017Z,4.60
2022-10-30T00:04:35.992Z,4.40
2022-10-30T00:05:35.989Z,4.80
2022-10-30T00:06:35.949Z,4.70
2022-10-30T00:07:35.930Z,4.50
2022-10-30T00:08:35.913Z,5.00
2022-10-30T00:09:35.887Z,5.00
2022-10-30T00:10:35.869Z,5.10
2022-10-30T00:11:35.853Z,5.20
2022-10-30T00:12:35.827Z,4.40
2022-10-30T00:13:35.805Z,4.70
2022-10-30T00:14:35.785Z,4.70
2022-10-30T00:15:35.763Z,4.10
2022-10-30T00:16:35.745Z,4.40
2022-10-30T00:17:35.726Z,4.60
2022-10-30T00:18:35.704Z,4.90
2022-10-30T00:19:35.680Z,4.80
2022-10-30T00:20:35.660Z,4.70
2022-10-30T00:21:35.699Z,4.90
2022-10-30T00:22:35.622Z,4.70
2022-10-30T00:23:35.600Z,4.50
2022-10-30T00:24:35.581Z,5.00
2022-10-30T00:25:35.560Z,3.90
2022-10-30T00:26:35.542Z,4.50
2022-10-30T00:27:35.516Z,4.40
2022-10-30T00:28:35.495Z,4.60
2022-10-30T00:29:35.476Z,4.90
2022-10-30T00:30:35.467Z,4.60
2022-10-30T00:31:35.431Z,4.60
2022-10-30T00:32:35.413Z,4.70
2022-10-30T00:33:35.393Z,5.30
2022-10-30T00:34:35.371Z,4.60
2022-10-30T00:35:35.445Z,4.20
2022-10-30T00:36:35.333Z,4.90
2022-10-30T00:37:35.329Z,4.90
2022-10-30T00:38:35.287Z,4.60
2022-10-30T00:39:35.267Z,4.50
2022-10-30T00:40:35.246Z,5.30
2022-10-30T00:41:35.226Z,4.80
2022-10-30T00:42:35.204Z,5.10
2022-10-30T00:43:35.185Z,4.60
2022-10-30T00:44:35.164Z,4.80
2022-10-30T00:45:35.142Z,5.00
2022-10-30T00:46:35.123Z,4.90
2022-10-30T00:47:35.103Z,4.90
2022-10-30T00:48:35.081Z,4.70
2022-10-30T00:49:35.057Z,4.80
2022-10-30T00:50:35.042Z,5.00
2022-10-30T00:51:35.020Z,5.20
2022-10-30T00:52:34.998Z,5.00
2022-10-30T00:53:34.993Z,4.90
2022-10-30T00:54:34.956Z,4.90
2022-10-30T00:55:34.941Z,4.80
2022-10-30T00:56:34.913Z,4.50
2022-10-30T00:57:34.892Z,4.90
2022-10-30T00:58:34.871Z,4.70
2022-10-30T00:59:34.849Z,5.40
2022-10-30T01:00:34.830Z,5.10
2022-10-30T01:01:34.958Z,5.00
2022-10-30T01:02:34.906Z,5.00
2022-10-30T01:03:34.764Z,5.10
2022-10-30T01:04:34.746Z,5.30
2022-10-30T01:05:34.722Z,4.60
2022-10-30T01:06:34.704Z,5.80
2022-10-30T01:07:34.679Z,5.20
2022-10-30T01:08:34.696Z,5.30
2022-10-30T01:09:34.658Z,4.80
2022-10-30T01:10:34.618Z,5.50
2022-10-30T01:11:34.596Z,4.80
2022-10-30T01:12:34.577Z,4.50
2022-10-30T01:13:34.554Z,5.20
2022-10-30T01:14:34.534Z,5.20
2022-10-30T01:15:34.511Z,5.20
2022-10-30T01:16:34.497Z,4.90
2022-10-30T01:17:34.468Z,5.50
2022-10-30T01:18:34.453Z,5.20
2022-10-30T01:19:34.428Z,5.20
2022-10-30T01:20:34.409Z,5.50
2022-10-30T01:21:34.384Z,5.20
2022-10-30T01:22:34.366Z,5.30
2022-10-30T01:23:34.343Z,5.40
2022-10-30T01:24:34.324Z,5.00
2022-10-30T01:25:34.319Z,5.20
2022-10-30T01:26:34.280Z,4.90
2022-10-30T01:27:34.258Z,5.10
2022-10-30T01:28:34.237Z,5.00
2022-10-30T01:29:34.217Z,4.80
2022-10-30T01:30:34.194Z,5.00
2022-10-30T01:31:34.173Z,4.60
2022-10-30T01:32:34.153Z,5.20
2022-10-30T01:33:34.130Z,4.90
2022-10-30T01:34:34.144Z,5.00
2022-10-30T01:35:34.087Z,4.70
2022-10-30T01:36:34.067Z,5.40
2022-10-30T01:37:34.045Z,5.50
2022-10-30T01:38:34.027Z,4.80
2022-10-30T01:39:34.008Z,5.20
2022-10-30T01:40:33.984Z,5.10
2022-10-30T01:41:33.980Z,4.90
2022-10-30T01:42:33.942Z,5.00
2022-10-30T01:43:33.920Z,5.50
2022-10-30T01:44:33.899Z,5.50
2022-10-30T01:45:33.875Z,5.50
2022-10-30T01:46:33.857Z,5.90
2022-10-30T01:47:33.834Z,5.40
2022-10-30T01:48:33.815Z,5.70
2022-10-30T01:49:33.799Z,5.50
2022-10-30T01:50:33.773Z,5.40
2022-10-30T01:51:33.751Z,6.10
2022-10-30T01:52:33.730Z,6.40
2022-10-30T01:53:33.708Z,6.40
2022-10-30T01:54:33.690Z,6.40
2022-10-30T01:55:33.662Z,5.90
2022-10-30T01:56:33.647Z,6.10
2022-10-30T01:57:33.641Z,6.30
2022-10-30T01:58:33.602Z,6.40
2022-10-30T01:59:33.580Z,6.50
2022-10-30T02:00:33.559Z,6.70
2022-10-30T02:01:33.671Z,6.40
2022-10-30T02:02:33.705Z,7.00
2022-10-30T02:03:33.496Z,7.60
2022-10-30T02:04:33.474Z,7.40
2022-10-30T02:05:33.453Z,7.10
2022-10-30T02:06:33.437Z,7.10
2022-10-30T02:07:33.410Z,6.60
2022-10-30T02:08:33.394Z,6.50
2022-10-30T02:09:33.366Z,7.00
2022-10-30T02:10:33.348Z,6.70
2022-10-30T02:11:33.326Z,6.80
2022-10-30T02:12:33.309Z,6.50
2022-10-30T02:13:33.301Z,6.30
2022-10-30T02:14:33.259Z,7.00
2022-10-30T02:15:33.237Z,7.10
2022-10-30T02:16:33.215Z,7.10
2022-10-30T02:17:33.193Z,7.20
2022-10-30T02:18:33.232Z,6.50
2022-10-30T02:19:33.152Z,6.30
2022-10-30T02:20:33.133Z,7.20
2022-10-30T02:21:33.112Z,6.70
2022-10-30T02:22:33.193Z,7.40
2022-10-30T02:23:33.064Z,6.80
2022-10-30T02:24:33.045Z,6.90
2022-10-30T02:25:33.023Z,6.80
2022-10-30T02:26:33.002Z,6.90
2022-10-30T02:27:32.978Z,6.90
2022-10-30T02:28:32.958Z,7.20
2022-10-30T02:29:32.956Z,6.60
2022-10-30T02:30:32.913Z,6.50
2022-10-30T02:31:32.903Z,7.00
2022-10-30T02:32:32.873Z,7.30
2022-10-30T02:33:32.853Z,6.40
2022-10-30T02:34:32.826Z,6.60
2022-10-30T02:35:32.805Z,6.90
2022-10-30T02:36:32.785Z,6.90
2022-10-30T02:37:32.769Z,7.20
2022-10-30T02:38:32.743Z,6.40
2022-10-30T02:39:32.718Z,7.50
2022-10-30T02:40:32.699Z,6.70
2022-10-30T02:41:32.675Z,7.70
2022-10-30T02:42:32.652Z,6.70
2022-10-30T02:43:32.633Z,5.90
2022-10-30T02:44:32.610Z,6.20
2022-10-30T02:45:32.605Z,7.10
2022-10-30T02:46:32.568Z,7.10
2022-10-30T02:47:32.542Z,7.30
2022-10-30T02:48:32.523Z,7.20
2022-10-30T02:49:32.502Z,7.00
2022-10-30T02:50:32.481Z,6.30
2022-10-30T02:51:32.460Z,6.80
2022-10-30T02:52:32.435Z,6.50
2022-10-30T02:53:32.411Z,6.80
2022-10-30T02:54:32.391Z,6.70
2022-10-30T02:55:32.372Z,6.90
2022-10-30T02:56:32.346Z,6.60
2022-10-30T02:57:32.325Z,7.00
2022-10-30T02:58:32.302Z,6.80
2022-10-30T02:59:32.280Z,7.40
2022-10-30T03:00:32.284Z,6.80
2022-10-30T03:01:32.377Z,6.90
2022-10-30T03:02:32.214Z,7.00
2022-10-30T03:03:32.197Z,6.70
2022-10-30T03:04:32.174Z,6.80
2022-10-30T03:05:32.151Z,7.00
2022-10-30T03:06:32.129Z,6.60
2022-10-30T03:07:32.107Z,7.00
2022-10-30T03:08:32.084Z,6.80
2022-10-30T03:09:32.063Z,6.90
2022-10-30T03:10:32.037Z,6.60
2022-10-30T03:11:32.022Z,6.40
2022-10-30T03:12:31.993Z,6.80
2022-10-30T03:13:31.986Z,6.30
2022-10-30T03:14:31.952Z,6.70
2022-10-30T03:15:31.931Z,7.10
2022-10-30T03:16:31.910Z,6.80
2022-10-30T03:17:31.951Z,6.70
2022-10-30T03:18:31.860Z,6.80
2022-10-30T03:19:31.839Z,6.50
2022-10-30T03:20:31.818Z,7.20
2022-10-30T03:21:31.799Z,6.80
2022-10-30T03:22:31.771Z,7.00
2022-10-30T03:23:31.750Z,6.80
2022-10-30T03:24:31.731Z,7.60
2022-10-30T03:25:31.708Z,6.70
2022-10-30T03:26:31.686Z,7.30
2022-10-30T03:27:31.662Z,6.70
2022-10-30T03:28:31.639Z,7.40
2022-10-30T03:29:31.616Z,7.00
2022-10-30T03:30:31.594Z,6.60
2022-10-30T03:31:31.586Z,7.00
2022-10-30T03:32:31.585Z,6.70
2022-10-30T03:33:31.561Z,6.80
2022-10-30T03:34:31.504Z,6.50
2022-10-30T03:35:31.484Z,6.80
2022-10-30T03:36:31.461Z,6.80
2022-10-30T03:37:31.439Z,7.50
2022-10-30T03:38:31.414Z,6.70
2022-10-30T03:39:31.394Z,7.10
2022-10-30T03:40:31.370Z,7.10
2022-10-30T03:41:31.349Z,7.40
2022-10-30T03:42:31.325Z,6.50
2022-10-30T03:43:31.303Z,7.10
2022-10-30T03:44:31.281Z,7.40
2022-10-30T03:45:31.260Z,7.10
2022-10-30T03:46:31.237Z,6.50
2022-10-30T03:47:31.218Z,6.70
2022-10-30T03:48:31.188Z,6.60
2022-10-30T03:49:31.187Z,6.50
2022-10-30T03:50:31.143Z,6.60
2022-10-30T03:51:31.130Z,6.70
2022-10-30T03:52:31.101Z,7.50
2022-10-30T03:53:31.079Z,6.30
2022-10-30T03:54:31.055Z,6.70
2022-10-30T03:55:31.034Z,7.10
2022-10-30T03:56:31.008Z,7.10
2022-10-30T03:57:30.988Z,7.20
2022-10-30T03:58:30.962Z,6.70
2022-10-30T03:59:30.945Z,6.70
2022-10-30T04:00:30.922Z,6.00
2022-10-30T04:01:31.061Z,7.20
2022-10-30T04:02:30.874Z,7.50
2022-10-30T04:03:30.860Z,7.50
2022-10-30T04:04:30.828Z,7.40
2022-10-30T04:05:30.828Z,6.70
2022-10-30T04:06:30.787Z,6.20
2022-10-30T04:07:30.762Z,7.00
2022-10-30T04:08:30.740Z,7.10
2022-10-30T04:09:30.716Z,6.90
2022-10-30T04:10:30.691Z,8.00
2022-10-30T04:11:30.703Z,6.90
2022-10-30T04:12:30.648Z,7.20
2022-10-30T04:13:30.628Z,6.90
2022-10-30T04:14:30.604Z,6.80
2022-10-30T04:15:30.580Z,7.00
2022-10-30T04:16:30.557Z,7.10
2022-10-30T04:17:30.536Z,6.70
2022-10-30T04:18:30.511Z,7.60
2022-10-30T04:19:30.489Z,7.50
2022-10-30T04:20:30.464Z,7.20
2022-10-30T04:21:30.463Z,7.30
2022-10-30T04:22:30.422Z,6.90
2022-10-30T04:23:30.400Z,6.80
2022-10-30T04:24:30.376Z,6.90
2022-10-30T04:25:30.353Z,6.40
2022-10-30T04:26:30.328Z,7.20
2022-10-30T04:27:30.307Z,6.70
2022-10-30T04:28:30.290Z,7.30
2022-10-30T04:29:30.265Z,7.30
2022-10-30T04:30:30.238Z,7.20
2022-10-30T04:31:30.216Z,7.00
2022-10-30T04:32:30.195Z,7.10
2022-10-30T04:33:30.174Z,6.80
2022-10-30T04:34:30.145Z,7.80
2022-10-30T04:35:30.131Z,7.20
2022-10-30T04:36:30.107Z,6.70
2022-10-30T04:37:30.098Z,7.30
2022-10-30T04:38:30.054Z,7.60
2022-10-30T04:39:30.036Z,7.00
2022-10-30T04:40:30.021Z,6.70
2022-10-30T04:41:29.990Z,7.30
2022-10-30T04:42:29.965Z,6.90
2022-10-30T04:43:29.944Z,7.00
2022-10-30T04:44:29.920Z,6.60
2022-10-30T04:45:29.912Z,7.00
2022-10-30T04:46:29.874Z,6.60
2022-10-30T04:47:29.917Z,7.30
2022-10-30T04:48:29.827Z,7.00
2022-10-30T04:49:29.813Z,7.10
2022-10-30T04:50:29.795Z,7.40
2022-10-30T04:51:29.764Z,7.10
2022-10-30T04:52:29.737Z,6.50
2022-10-30T04:53:29.734Z,6.60
2022-10-30T04:54:29.706Z,7.10
2022-10-30T04:55:29.670Z,6.90
2022-10-30T04:56:29.647Z,5.70
2022-10-30T04:57:29.624Z,5.80
2022-10-30T04:58:29.598Z,6.00
2022-10-30T04:59:29.579Z,6.10
2022-10-30T05:00:29.554Z,6.00
2022-10-30T05:01:29.672Z,5.60
2022-10-30T05:02:29.690Z,5.40
2022-10-30T05:03:29.486Z,5.80
2022-10-30T05:04:29.468Z,5.60
2022-10-30T05:05:29.442Z,5.30
2022-10-30T05:06:29.416Z,5.60
2022-10-30T05:07:29.396Z,5.50
2022-10-30T05:08:29.373Z,5.80
2022-10-30T05:09:29.368Z,5.80
2022-10-30T05:10:29.331Z,5.50
2022-10-30T05:11:29.315Z,5.90
2022-10-30T05:12:29.279Z,5.00
2022-10-30T05:13:29.259Z,6.00
2022-10-30T05:14:29.234Z,6.00
2022-10-30T05:15:29.215Z,5.70
2022-10-30T05:16:29.193Z,6.00
2022-10-30T05:18:29.146Z,5.60
2022-10-30T05:19:29.132Z,6.00
2022-10-30T05:20:29.100Z,6.20
2022-10-30T05:21:29.079Z,5.60
2022-10-30T05:22:29.054Z,6.20
2022-10-30T05:23:29.037Z,6.10
2022-10-30T05:24:29.011Z,6.10
2022-10-30T05:25:29.008Z,5.80
2022-10-30T05:26:28.966Z,6.00
2022-10-30T05:27:28.944Z,6.20
2022-10-30T05:28:28.925Z,6.00
2022-10-30T05:29:28.900Z,6.30
2022-10-30T05:30:28.879Z,5.90
2022-10-30T05:31:28.854Z,5.80
2022-10-30T05:32:28.832Z,6.00
2022-10-30T05:33:28.814Z,6.90
2022-10-30T05:34:28.785Z,6.90
2022-10-30T05:35:28.772Z,6.30
2022-10-30T05:36:28.742Z,6.40
2022-10-30T05:37:28.722Z,7.10
2022-10-30T05:38:28.700Z,7.00
2022-10-30T05:39:28.675Z,7.30
2022-10-30T05:40:28.651Z,7.30
2022-10-30T05:41:28.650Z,6.50
2022-10-30T05:42:28.605Z,6.80
2022-10-30T05:43:28.587Z,7.20
2022-10-30T05:44:55.026Z,7.00
2022-10-30T05:45:28.539Z,6.50
2022-10-30T05:46:28.519Z,7.40
2022-10-30T05:47:28.549Z,7.20
2022-10-30T05:48:28.472Z,6.00
2022-10-30T05:49:28.454Z,6.70
2022-10-30T05:50:28.431Z,6.60
2022-10-30T05:51:28.404Z,6.90
2022-10-30T05:52:28.380Z,6.90
2022-10-30T05:53:28.361Z,6.80
2022-10-30T05:54:28.337Z,7.30
2022-10-30T05:55:28.317Z,6.70
2022-10-30T05:56:28.297Z,6.70
2022-10-30T05:57:28.290Z,6.40
2022-10-30T05:58:28.245Z,7.60
2022-10-30T05:59:28.224Z,7.00
2022-10-30T06:00:28.207Z,7.80
2022-10-30T06:01:28.291Z,7.10
2022-10-30T06:02:28.229Z,7.40
2022-10-30T06:03:28.136Z,6.80
2022-10-30T06:04:28.110Z,6.70
2022-10-30T06:05:28.090Z,6.80
2022-10-30T06:06:28.064Z,7.20
2022-10-30T06:07:28.041Z,6.50
2022-10-30T06:08:28.018Z,6.90
2022-10-30T06:09:28.000Z,6.40
2022-10-30T06:10:27.971Z,6.60
2022-10-30T06:11:27.951Z,7.00
2022-10-30T06:12:27.927Z,7.40
2022-10-30T06:13:27.928Z,6.70
2022-10-30T06:14:27.880Z,7.50
2022-10-30T06:15:27.861Z,6.90
2022-10-30T06:16:27.880Z,7.20
2022-10-30T06:17:27.816Z,7.00
2022-10-30T06:18:27.796Z,6.70
2022-10-30T06:19:27.769Z,6.80
2022-10-30T06:20:27.743Z,7.40
2022-10-30T06:21:27.724Z,6.80
2022-10-30T06:22:27.697Z,7.20
2022-10-30T06:23:27.676Z,6.60
2022-10-30T06:24:27.657Z,6.70
2022-10-30T06:25:27.634Z,7.00
2022-10-30T06:26:27.606Z,6.70
2022-10-30T06:27:27.583Z,6.70
2022-10-30T06:28:27.561Z,7.30
2022-10-30T06:29:27.556Z,6.70
2022-10-30T06:30:27.517Z,7.00
2022-10-30T06:31:27.495Z,7.10
2022-10-30T06:32:27.472Z,6.90
2022-10-30T06:33:27.445Z,7.50
2022-10-30T06:34:27.423Z,7.80
2022-10-30T06:35:27.405Z,7.60
2022-10-30T06:36:27.372Z,7.70
2022-10-30T06:37:27.413Z,7.20
2022-10-30T06:38:27.328Z,7.30
2022-10-30T06:39:27.306Z,7.30
2022-10-30T06:40:27.283Z,7.40
2022-10-30T06:41:30.298Z,7.50
2022-10-30T06:42:27.234Z,6.60
2022-10-30T06:43:27.217Z,7.00
2022-10-30T06:44:27.188Z,7.00
2022-10-30T06:45:27.187Z,7.70
2022-10-30T06:46:30.710Z,7.60
2022-10-30T06:47:27.119Z,7.40
2022-10-30T06:48:27.095Z,7.70
2022-10-30T06:49:27.074Z,6.90
2022-10-30T06:50:27.050Z,7.60
2022-10-30T06:51:27.197Z,6.80
2022-10-30T06:52:27.001Z,6.90
2022-10-30T06:53:26.981Z,6.00
2022-10-30T06:54:26.955Z,6.80
2022-10-30T06:55:26.934Z,7.00
2022-10-30T06:56:26.912Z,6.60
2022-10-30T06:57:26.887Z,7.40
2022-10-30T06:58:26.863Z,6.80
2022-10-30T06:59:26.840Z,7.00
2022-10-30T07:00:26.824Z,6.90
2022-10-30T07:01:26.879Z,6.70
2022-10-30T07:02:26.825Z,6.90
2022-10-30T07:03:26.748Z,7.40
2022-10-30T07:04:26.721Z,7.40
2022-10-30T07:05:26.702Z,7.20
2022-10-30T07:06:26.677Z,7.40
2022-10-30T07:07:26.655Z,7.30
2022-10-30T07:08:26.631Z,7.00
2022-10-30T07:09:26.608Z,7.20
2022-10-30T07:10:26.592Z,7.20
2022-10-30T07:11:26.560Z,7.20
2022-10-30T07:12:26.539Z,7.20
2022-10-30T07:13:26.514Z,7.10
2022-10-30T07:14:26.510Z,7.00
2022-10-30T07:15:26.467Z,7.20
2022-10-30T07:16:26.445Z,7.10
2022-10-30T07:17:26.440Z,6.60
2022-10-30T07:18:26.401Z,6.90
2022-10-30T07:19:26.375Z,6.90
2022-10-30T07:20:26.472Z,6.90
2022-10-30T07:21:26.332Z,6.90
2022-10-30T07:22:26.386Z,7.30
2022-10-30T07:23:26.371Z,7.10
2022-10-30T07:24:26.259Z,7.10
2022-10-30T07:25:26.258Z,7.80
2022-10-30T07:26:26.281Z,7.00
2022-10-30T07:27:26.188Z,7.30
2022-10-30T07:28:26.171Z,7.00
2022-10-30T07:29:26.144Z,7.30
2022-10-30T07:31:41.432Z,6.80
2022-10-30T07:32:26.076Z,7.20
2022-10-30T07:33:26.066Z,7.30
2022-10-30T07:34:26.027Z,7.80
2022-10-30T07:35:26.004Z,7.90
2022-10-30T07:36:25.983Z,7.40
2022-10-30T07:37:25.958Z,8.00
2022-10-30T07:38:25.934Z,7.30
2022-10-30T07:39:25.910Z,6.40
2022-10-30T07:40:25.900Z,7.70
2022-10-30T07:41:25.891Z,6.50
2022-10-30T07:42:25.843Z,7.30
2022-10-30T07:43:25.818Z,7.30
2022-10-30T07:44:25.800Z,7.50
2022-10-30T07:45:25.773Z,8.30
2022-10-30T07:46:25.751Z,7.80
2022-10-30T07:47:25.726Z,7.20
2022-10-30T07:48:25.708Z,7.40
2022-10-30T07:49:25.702Z,7.50
2022-10-30T07:50:25.665Z,6.80
2022-10-30T07:51:25.636Z,7.60
2022-10-30T07:52:25.614Z,7.50
2022-10-30T07:53:25.589Z,7.50
2022-10-30T07:54:25.565Z,7.40
2022-10-30T07:55:25.542Z,7.50
2022-10-30T07:56:25.519Z,7.30
2022-10-30T07:57:25.499Z,6.90
2022-10-30T07:58:25.478Z,7.00
2022-10-30T07:59:25.449Z,7.20
2022-10-30T08:00:25.430Z,7.70
2022-10-30T08:01:25.687Z,8.10
2022-10-30T08:02:25.530Z,7.80
2022-10-30T08:03:25.359Z,7.20
2022-10-30T08:04:25.339Z,7.30
2022-10-30T08:05:28.892Z,7.20
2022-10-30T08:06:27.172Z,7.20
2022-10-30T08:07:25.268Z,7.80
2022-10-30T08:08:25.280Z,7.60
2022-10-30T08:09:25.223Z,7.70
2022-10-30T08:10:25.203Z,7.70
2022-10-30T08:11:25.179Z,7.30
2022-10-30T08:12:25.155Z,7.50
2022-10-30T08:13:25.130Z,7.60
2022-10-30T08:14:25.110Z,7.70
2022-10-30T08:15:25.148Z,7.30
2022-10-30T08:16:25.134Z,7.20
2022-10-30T08:17:25.061Z,7.40
2022-10-30T08:18:25.018Z,7.00
2022-10-30T08:19:24.996Z,6.80
2022-10-30T08:20:24.973Z,7.30
2022-10-30T08:21:24.993Z,7.30
2022-10-30T08:22:24.928Z,8.00
2022-10-30T08:23:24.902Z,7.60
2022-10-30T08:24:24.884Z,8.30
2022-10-30T08:25:24.859Z,7.50
2022-10-30T08:26:24.835Z,7.70
2022-10-30T08:27:24.812Z,7.80
2022-10-30T08:28:28.319Z,7.70
2022-10-30T08:29:24.804Z,7.50
2022-10-30T08:30:24.752Z,7.20
2022-10-30T08:31:24.742Z,7.70
2022-10-30T08:32:24.723Z,7.90
2022-10-30T08:33:24.678Z,7.40
2022-10-30T08:34:24.655Z,7.50
2022-10-30T08:35:24.683Z,8.20
2022-10-30T08:36:24.611Z,7.40
2022-10-30T08:37:24.606Z,11.50
2022-10-30T08:38:24.565Z,8.40
2022-10-30T08:39:24.551Z,8.20
2022-10-30T08:40:24.521Z,7.80
2022-10-30T08:41:24.498Z,7.90
2022-10-30T08:42:24.474Z,7.80
2022-10-30T08:43:24.462Z,7.50
2022-10-30T08:44:24.435Z,7.60
2022-10-30T08:45:29.732Z,7.80
2022-10-30T08:46:24.426Z,7.20
2022-10-30T08:47:24.384Z,7.80
2022-10-30T08:48:24.346Z,7.30
2022-10-30T08:49:24.317Z,8.00
2022-10-30T08:50:24.304Z,7.50
2022-10-30T08:51:24.278Z,8.20
2022-10-30T08:52:24.251Z,7.70
2022-10-30T08:53:24.250Z,7.30
2022-10-30T08:54:24.211Z,7.40
2022-10-30T08:55:24.184Z,7.40
2022-10-30T08:56:24.172Z,7.60
2022-10-30T08:57:24.141Z,7.80
2022-10-30T08:58:24.120Z,7.50
2022-10-30T08:59:24.098Z,7.40
2022-10-30T09:00:24.111Z,7.90
2022-10-30T09:01:24.126Z,8.50
2022-10-30T09:02:24.115Z,7.90
2022-10-30T09:03:24.009Z,7.40
2022-10-30T09:04:23.986Z,7.30
2022-10-30T09:05:23.964Z,8.00
2022-10-30T09:06:23.941Z,7.70
2022-10-30T09:07:23.919Z,7.60
2022-10-30T09:08:23.903Z,8.00
2022-10-30T09:09:23.893Z,7.70
2022-10-30T09:10:23.957Z,8.20
2022-10-30T09:11:23.832Z,7.70
2022-10-30T09:12:23.813Z,7.70
2022-10-30T09:13:23.789Z,8.10
2022-10-30T09:14:23.770Z,7.90
2022-10-30T09:15:23.748Z,8.10
2022-10-30T09:16:23.724Z,8.20
2022-10-30T09:17:23.702Z,7.30
2022-10-30T09:18:23.681Z,8.20
2022-10-30T09:19:23.656Z,7.80
2022-10-30T09:20:23.760Z,8.00
2022-10-30T09:21:23.613Z,7.70
2022-10-30T09:22:23.594Z,7.40
2022-10-30T09:23:23.575Z,8.00
2022-10-30T09:24:23.551Z,8.30
2022-10-30T09:25:23.547Z,7.60
2022-10-30T09:26:23.509Z,7.40
2022-10-30T09:27:23.486Z,7.90
2022-10-30T09:28:23.465Z,7.10
2022-10-30T09:29:23.443Z,7.40
2022-10-30T09:30:23.465Z,7.50
2022-10-30T09:31:23.401Z,7.30
2022-10-30T09:32:23.384Z,6.90
2022-10-30T09:33:23.358Z,7.40
2022-10-30T09:34:23.407Z,8.00
2022-10-30T09:35:23.316Z,7.70
2022-10-30T09:36:23.297Z,6.70
2022-10-30T09:37:23.276Z,6.90
2022-10-30T09:38:23.253Z,7.40
2022-10-30T09:39:23.231Z,7.30
2022-10-30T09:40:23.215Z,7.50
2022-10-30T09:41:23.208Z,8.00
2022-10-30T09:42:23.172Z,7.80
2022-10-30T09:43:23.149Z,7.70
2022-10-30T09:44:23.131Z,8.10
2022-10-30T09:45:29.187Z,7.80
2022-10-30T09:46:23.089Z,7.20
2022-10-30T09:47:23.635Z,7.90
2022-10-30T09:48:23.048Z,7.60
2022-10-30T09:49:23.027Z,7.20
2022-10-30T09:50:23.009Z,7.40
2022-10-30T09:51:22.989Z,7.20
2022-10-30T09:52:22.972Z,7.30
2022-10-30T09:53:22.950Z,8.10
2022-10-30T09:54:22.928Z,7.10
2022-10-30T09:55:22.908Z,7.20
2022-10-30T09:56:22.889Z,6.80
2022-10-30T09:57:22.888Z,7.80
2022-10-30T09:58:22.852Z,7.40
2022-10-30T09:59:22.829Z,7.10
2022-10-30T10:00:22.914Z,7.40
2022-10-30T10:01:22.929Z,6.70
2022-10-30T10:02:22.975Z,6.80
2022-10-30T10:03:22.753Z,7.70
2022-10-30T10:04:26.469Z,7.60
2022-10-30T10:05:22.712Z,7.60
2022-10-30T10:06:22.694Z,6.70
2022-10-30T10:07:22.675Z,7.00
2022-10-30T10:08:22.656Z,6.90
2022-10-30T10:09:22.635Z,6.50
2022-10-30T10:10:22.752Z,6.30
2022-10-30T10:11:22.601Z,6.30
2022-10-30T10:12:22.583Z,6.20
2022-10-30T10:13:22.586Z,6.60
2022-10-30T10:14:22.543Z,5.70
2022-10-30T10:15:22.525Z,5.90
2022-10-30T10:16:22.509Z,6.40
2022-10-30T10:17:22.488Z,5.60
2022-10-30T10:18:22.574Z,6.40
2022-10-30T10:19:22.449Z,6.60
2022-10-30T10:20:22.432Z,6.30
2022-10-30T10:21:22.416Z,5.70
2022-10-30T10:22:22.394Z,6.70
2022-10-30T10:23:22.375Z,5.80
2022-10-30T10:24:22.359Z,6.20
2022-10-30T10:25:22.338Z,6.70
2022-10-30T10:26:22.322Z,6.60
2022-10-30T10:27:22.302Z,6.10
2022-10-30T10:28:22.287Z,6.20
2022-10-30T10:29:22.285Z,6.30
2022-10-30T10:30:22.250Z,6.00
2022-10-30T10:31:22.229Z,6.50
2022-10-30T10:32:22.213Z,6.80
2022-10-30T10:34:22.181Z,6.40
2022-10-30T10:35:22.158Z,6.50
2022-10-30T10:36:22.140Z,6.20
2022-10-30T10:37:22.121Z,6.40
2022-10-30T10:38:22.103Z,6.10
2022-10-30T10:39:22.084Z,6.00
2022-10-30T10:40:22.069Z,6.30
2022-10-30T10:41:22.051Z,6.00
2022-10-30T10:42:22.031Z,6.40
2022-10-30T10:43:22.012Z,5.80
2022-10-30T10:44:21.997Z,6.10
2022-10-30T10:45:22.005Z,5.80
2022-10-30T10:46:21.960Z,6.20
2022-10-30T10:47:21.941Z,6.00
2022-10-30T10:48:21.929Z,6.20
2022-10-30T10:49:21.909Z,5.80
2022-10-30T10:50:21.893Z,5.90
2022-10-30T10:51:21.873Z,5.80
2022-10-30T10:52:21.857Z,6.30
2022-10-30T10:53:21.836Z,6.30
2022-10-30T10:54:21.820Z,5.90
2022-10-30T10:55:21.800Z,6.30
2022-10-30T10:56:21.783Z,6.20
2022-10-30T10:57:21.769Z,6.00
2022-10-30T10:58:21.750Z,5.80
2022-10-30T10:59:21.730Z,6.10
2022-10-30T11:00:21.801Z,5.90
2022-10-30T11:01:21.892Z,5.90
2022-10-30T11:02:21.853Z,6.50
2022-10-30T11:03:21.664Z,5.70
2022-10-30T11:04:21.642Z,5.50
2022-10-30T11:05:21.623Z,6.10
2022-10-30T11:06:21.608Z,6.10
2022-10-30T11:07:21.588Z,5.60
2022-10-30T11:08:21.626Z,6.20
2022-10-30T11:09:21.563Z,5.90
2022-10-30T11:10:21.544Z,6.10
2022-10-30T11:11:21.513Z,5.80
2022-10-30T11:12:21.504Z,5.70
2022-10-30T11:13:21.480Z,5.90
2022-10-30T11:14:21.458Z,6.30
2022-10-30T11:15:21.448Z,6.90
2022-10-30T11:16:21.428Z,5.80
2022-10-30T11:17:21.422Z,6.20
2022-10-30T11:18:21.389Z,6.60
2022-10-30T11:19:21.368Z,6.00
2022-10-30T11:20:21.357Z,5.70
2022-10-30T11:21:21.351Z,6.50
2022-10-30T11:22:21.313Z,6.30
2022-10-30T11:23:21.291Z,6.00
2022-10-30T11:24:21.282Z,6.10
2022-10-30T11:25:25.321Z,6.50
2022-10-30T11:26:21.238Z,7.10
2022-10-30T11:27:21.220Z,7.40
2022-10-30T11:28:21.208Z,6.60
2022-10-30T11:29:21.210Z,6.70
2022-10-30T11:30:21.258Z,7.50
2022-10-30T11:31:21.148Z,7.20
2022-10-30T11:32:21.174Z,6.80
2022-10-30T11:33:21.128Z,7.60
2022-10-30T11:34:21.108Z,7.20
2022-10-30T11:35:21.069Z,7.10
2022-10-30T11:36:21.054Z,7.50
2022-10-30T11:37:21.042Z,6.90
2022-10-30T11:38:21.017Z,7.60
2022-10-30T11:39:20.997Z,7.30
2022-10-30T11:40:20.975Z,7.20
2022-10-30T11:41:20.956Z,7.30
2022-10-30T11:42:20.939Z,7.30
2022-10-30T11:43:20.921Z,7.10
2022-10-30T11:44:20.907Z,7.70
2022-10-30T11:45:20.914Z,6.80
2022-10-30T11:46:20.863Z,7.60
2022-10-30T11:47:20.926Z,7.10
2022-10-30T11:48:21.217Z,6.80
2022-10-30T11:49:20.825Z,6.80
2022-10-30T11:50:20.785Z,6.40
2022-10-30T11:51:20.829Z,6.00
2022-10-30T11:52:20.763Z,6.50
2022-10-30T11:53:20.803Z,6.50
2022-10-30T11:54:20.713Z,6.30
2022-10-30T11:55:20.692Z,6.00
2022-10-30T11:56:20.674Z,6.10
2022-10-30T11:57:20.656Z,6.50
2022-10-30T11:58:20.644Z,6.70
2022-10-30T11:59:20.616Z,6.50
2022-10-30T12:00:20.596Z,6.60
2022-10-30T12:01:20.615Z,6.60
2022-10-30T12:02:20.705Z,6.40
2022-10-30T12:03:20.542Z,7.10
2022-10-30T12:04:20.519Z,6.40
2022-10-30T12:05:20.519Z,5.90
2022-10-30T12:06:20.485Z,6.50
2022-10-30T12:07:20.473Z,6.20
2022-10-30T12:08:20.452Z,6.20
2022-10-30T12:09:20.585Z,6.80
2022-10-30T12:10:20.407Z,6.60
2022-10-30T12:11:20.427Z,6.60
2022-10-30T12:12:20.394Z,6.10
2022-10-30T12:13:20.359Z,6.70
2022-10-30T12:14:20.326Z,6.60
2022-10-30T12:15:20.311Z,6.60
2022-10-30T12:16:20.293Z,5.70
2022-10-30T12:17:20.272Z,6.00
2022-10-30T12:18:20.327Z,6.20
2022-10-30T12:19:20.304Z,7.00
2022-10-30T12:20:20.359Z,6.40
2022-10-30T12:21:20.216Z,6.10
2022-10-30T12:22:20.293Z,5.80
2022-10-30T12:23:20.158Z,5.90
2022-10-30T12:24:20.174Z,5.10
2022-10-30T12:25:20.122Z,5.80
2022-10-30T12:26:20.101Z,5.70
2022-10-30T12:27:22.632Z,5.50
2022-10-30T12:28:20.065Z,5.90
2022-10-30T12:29:20.047Z,5.60
2022-10-30T12:30:20.073Z,5.80
2022-10-30T12:31:20.006Z,5.50
2022-10-30T12:32:19.989Z,5.90
2022-10-30T12:33:19.994Z,5.60
2022-10-30T12:34:19.947Z,5.40
2022-10-30T12:35:19.933Z,5.80
2022-10-30T12:36:19.907Z,5.20
2022-10-30T12:37:19.910Z,5.60
2022-10-30T12:38:19.917Z,5.50
2022-10-30T12:39:19.864Z,6.00
2022-10-30T12:40:19.834Z,5.80
2022-10-30T12:41:19.882Z,5.50
2022-10-30T12:42:19.798Z,6.00
2022-10-30T12:43:19.795Z,5.60
2022-10-30T12:44:19.760Z,6.40
2022-10-30T12:45:19.739Z,5.30
2022-10-30T12:46:19.716Z,6.10
2022-10-30T12:47:19.715Z,5.20
2022-10-30T12:48:19.678Z,5.80
2022-10-30T12:49:19.663Z,5.50
2022-10-30T12:50:19.647Z,5.70
2022-10-30T12:51:22.986Z,5.40
2022-10-30T12:52:19.604Z,5.40
2022-10-30T12:53:19.604Z,5.60
2022-10-30T12:54:19.569Z,5.90
2022-10-30T12:55:19.562Z,5.50
2022-10-30T12:56:19.528Z,5.50
2022-10-30T12:57:19.508Z,6.10
2022-10-30T12:58:19.490Z,5.30
2022-10-30T12:59:19.511Z,5.80
2022-10-30T13:00:19.523Z,5.60
2022-10-30T13:01:19.478Z,5.20
2022-10-30T13:02:19.602Z,5.90
2022-10-30T13:03:19.485Z,5.80
2022-10-30T13:04:19.494Z,5.70
2022-10-30T13:05:19.428Z,5.80
2022-10-30T13:06:19.424Z,5.70
2022-10-30T13:07:19.378Z,5.30
2022-10-30T13:08:19.342Z,5.50
2022-10-30T13:09:19.306Z,5.00
2022-10-30T13:10:19.325Z,5.10
2022-10-30T13:11:19.310Z,6.00
2022-10-30T13:12:19.263Z,5.70
2022-10-30T13:13:19.247Z,5.90
2022-10-30T13:14:19.465Z,5.50
2022-10-30T13:15:19.225Z,5.40
2022-10-30T13:16:19.147Z,6.20
2022-10-30T13:17:19.136Z,5.30
2022-10-30T13:18:19.114Z,5.40
2022-10-30T13:19:19.093Z,5.50
2022-10-30T13:20:19.073Z,5.30
2022-10-30T13:21:19.057Z,5.00